Cushing, OK

1:00 AM CST on December 22, 2014 (GMT -0600)
Cushing Municipal | Change Station
CLOSE
Current Station
Airport
Location: Cushing,
Elevation: 915 ft
Nearby Weather Stations

Elev 915 ft 35.95 °N, 96.77 °W | Updated 25 minutes ago

Overcast
Overcast
45 °F
Feels Like 40 °F
N
9
Wind Variable Wind from SSE

Today
High -- | Low -- °F
--% Chance of Precip.
Yesterday
High -- | Low -- °F
Precip. -- in
7:34 AM 5:17 PM
New Moon, 0% visible
Pressure 29.65 in
Visibility 7.0 miles
Clouds Overcast 800 ft
Windchill 40 °F
Dew Point 45 °F
Humidity 100%
Rainfall 0.00 in
Snow Depth Not available.
UV 0 out of 12
Pollen 5.30 out of 12
Air Quality Not available.
Flu Activity Not available.
METAR KCUH 220635Z AUTO 15008KT 7SM OVC008 07/07 A2965 RMK AO2

More Conditions Fewer Conditions

Pressure 29.65 in
Visibility 7.0 miles
Clouds Overcast 800 ft
Windchill 40 °F
Dew Point 45 °F
Humidity 100%
Rainfall 0.00 in
Snow Depth Not available.
UV 0 out of 12
Pollen 5.30 out of 12
Air Quality Not available.
Flu Activity Not available.
METAR KCUH 220635Z AUTO 15008KT 7SM OVC008 07/07 A2965 RMK AO2

More Conditions Fewer Conditions

10-Day Weather Forecast

Almanac

Astronomy

Dec. 22, 2014 Rise Set
Actual Time
Civil Twilight
Nautical Twilight
Astronomical Twilight
Moon
Length of Visible Light
Length of Day
Tomorrow will be .
, % of the Moon is Illuminated

Today's Extremes

State Highs State Lows

Community

WunderPhotos

Upload Photos

1,779,560 photos uploaded!

WunderBlogs® & News

Nearby

Air Quality

  Air Quality AQ Index Pollutant
Not available.

Snow Depth

Station Depth Elevation

Earthquake Activity

City Distance Mag. Time & Date
Minimum magnitude displayed is 2.5.

Coastal Water Temperatures

Place Temperature

Nearby Weather Stations